sensor_id;sensor_type;location;lat;lon;timestamp;pressure;altitude;pressure_sealevel;temperature;humidity
30708;BME280;17458;48.958;8.284;2023-02-11T00:01:45;102547.84;;;3.65;59.03
30708;BME280;17458;48.958;8.284;2023-02-11T00:04:30;102553.50;;;3.61;59.12
30708;BME280;17458;48.958;8.284;2023-02-11T00:07:14;102556.97;;;3.68;59.31
30708;BME280;17458;48.958;8.284;2023-02-11T00:09:58;102555.09;;;3.67;59.13
30708;BME280;17458;48.958;8.284;2023-02-11T00:12:42;102553.09;;;3.65;59.51
30708;BME280;17458;48.958;8.284;2023-02-11T00:15:26;102550.47;;;3.65;59.28
30708;BME280;17458;48.958;8.284;2023-02-11T00:18:10;102561.59;;;3.78;59.19
30708;BME280;17458;48.958;8.284;2023-02-11T00:20:53;102545.47;;;3.75;59.38
30708;BME280;17458;48.958;8.284;2023-02-11T00:23:37;102554.50;;;3.70;59.46
30708;BME280;17458;48.958;8.284;2023-02-11T00:26:24;102551.34;;;3.65;59.26
30708;BME280;17458;48.958;8.284;2023-02-11T00:29:09;102558.94;;;3.62;59.75
30708;BME280;17458;48.958;8.284;2023-02-11T00:31:52;102552.97;;;3.56;60.12
30708;BME280;17458;48.958;8.284;2023-02-11T00:34:37;102546.34;;;3.44;59.99
30708;BME280;17458;48.958;8.284;2023-02-11T00:37:21;102554.75;;;3.48;60.09
30708;BME280;17458;48.958;8.284;2023-02-11T00:40:05;102550.31;;;3.40;60.68
30708;BME280;17458;48.958;8.284;2023-02-11T00:42:50;102549.50;;;3.48;60.50
30708;BME280;17458;48.958;8.284;2023-02-11T00:45:34;102552.28;;;3.66;59.81
30708;BME280;17458;48.958;8.284;2023-02-11T00:48:19;102539.25;;;3.59;60.20
30708;BME280;17458;48.958;8.284;2023-02-11T00:51:03;102538.47;;;3.44;60.86
30708;BME280;17458;48.958;8.284;2023-02-11T00:53:47;102547.03;;;3.50;60.34
30708;BME280;17458;48.958;8.284;2023-02-11T00:56:32;102547.03;;;3.50;60.36
30708;BME280;17458;48.958;8.284;2023-02-11T00:59:16;102541.34;;;3.54;59.92
30708;BME280;17458;48.958;8.284;2023-02-11T01:02:01;102527.81;;;3.58;60.37
30708;BME280;17458;48.958;8.284;2023-02-11T01:04:45;102526.97;;;3.50;60.66
30708;BME280;17458;48.958;8.284;2023-02-11T01:07:29;102524.09;;;3.72;60.03
30708;BME280;17458;48.958;8.284;2023-02-11T01:10:13;102532.72;;;3.55;60.40
30708;BME280;17458;48.958;8.284;2023-02-11T01:12:57;102526.19;;;3.67;59.84
30708;BME280;17458;48.958;8.284;2023-02-11T01:15:43;102518.75;;;3.63;60.42
30708;BME280;17458;48.958;8.284;2023-02-11T01:18:27;102505.91;;;3.35;61.82
30708;BME280;17458;48.958;8.284;2023-02-11T01:21:11;102502.53;;;3.51;61.37
30708;BME280;17458;48.958;8.284;2023-02-11T01:23:55;102503.47;;;3.68;60.80
30708;BME280;17458;48.958;8.284;2023-02-11T01:26:39;102493.47;;;3.56;60.96
30708;BME280;17458;48.958;8.284;2023-02-11T01:29:23;102503.31;;;3.82;60.69
30708;BME280;17458;48.958;8.284;2023-02-11T01:32:07;102510.97;;;3.87;60.73
30708;BME280;17458;48.958;8.284;2023-02-11T01:34:51;102508.22;;;3.47;61.46
30708;BME280;17458;48.958;8.284;2023-02-11T01:37:35;102489.16;;;3.88;60.88
30708;BME280;17458;48.958;8.284;2023-02-11T01:40:19;102491.34;;;3.45;62.29
30708;BME280;17458;48.958;8.284;2023-02-11T01:43:03;102486.72;;;3.74;61.83
30708;BME280;17458;48.958;8.284;2023-02-11T01:48:38;102486.03;;;3.84;61.80
30708;BME280;17458;48.958;8.284;2023-02-11T01:52:31;102496.69;;;4.17;60.72
30708;BME280;17458;48.958;8.284;2023-02-11T01:54:59;102498.44;;;4.25;60.36
30708;BME280;17458;48.958;8.284;2023-02-11T01:58:04;102483.94;;;4.28;60.20
30708;BME280;17458;48.958;8.284;2023-02-11T02:00:49;102486.84;;;4.07;60.41
30708;BME280;17458;48.958;8.284;2023-02-11T02:03:36;102478.09;;;4.15;60.84
30708;BME280;17458;48.958;8.284;2023-02-11T02:06:26;102483.91;;;4.04;60.89
30708;BME280;17458;48.958;8.284;2023-02-11T02:09:21;102482.63;;;4.01;60.67
30708;BME280;17458;48.958;8.284;2023-02-11T02:12:06;102482.69;;;3.93;60.70
30708;BME280;17458;48.958;8.284;2023-02-11T02:14:51;102484.31;;;4.16;60.05
30708;BME280;17458;48.958;8.284;2023-02-11T02:17:43;102480.25;;;4.35;59.50
30708;BME280;17458;48.958;8.284;2023-02-11T02:30:00;102466.63;;;3.90;61.11
30708;BME280;17458;48.958;8.284;2023-02-11T02:36:07;102467.78;;;4.01;59.82
30708;BME280;17458;48.958;8.284;2023-02-11T02:38:57;102472.91;;;4.24;59.36
30708;BME280;17458;48.958;8.284;2023-02-11T02:41:44;102456.13;;;4.15;59.28
30708;BME280;17458;48.958;8.284;2023-02-11T02:44:29;102454.53;;;4.08;60.16
30708;BME280;17458;48.958;8.284;2023-02-11T02:47:13;102458.78;;;4.15;59.97
30708;BME280;17458;48.958;8.284;2023-02-11T02:49:57;102456.09;;;4.06;60.44
30708;BME280;17458;48.958;8.284;2023-02-11T02:52:49;102443.63;;;3.81;60.95
30708;BME280;17458;48.958;8.284;2023-02-11T02:55:44;102434.53;;;4.02;60.96
30708;BME280;17458;48.958;8.284;2023-02-11T03:01:58;102431.34;;;3.73;60.80
30708;BME280;17458;48.958;8.284;2023-02-11T03:04:51;102425.34;;;3.74;61.15
30708;BME280;17458;48.958;8.284;2023-02-11T03:07:51;102424.75;;;3.76;61.83
30708;BME280;17458;48.958;8.284;2023-02-11T03:10:43;102436.44;;;3.71;61.07
30708;BME280;17458;48.958;8.284;2023-02-11T03:13:32;102428.78;;;3.81;61.35
30708;BME280;17458;48.958;8.284;2023-02-11T03:16:20;102422.88;;;3.75;61.15
30708;BME280;17458;48.958;8.284;2023-02-11T03:19:11;102423.28;;;3.87;61.03
30708;BME280;17458;48.958;8.284;2023-02-11T03:21:56;102426.09;;;3.88;60.89
30708;BME280;17458;48.958;8.284;2023-02-11T03:24:40;102428.47;;;3.78;61.26
30708;BME280;17458;48.958;8.284;2023-02-11T03:30:43;102422.19;;;3.85;61.53
30708;BME280;17458;48.958;8.284;2023-02-11T03:33:39;102420.25;;;3.75;61.27
30708;BME280;17458;48.958;8.284;2023-02-11T03:36:31;102425.84;;;3.31;63.64
30708;BME280;17458;48.958;8.284;2023-02-11T03:39:22;102413.72;;;3.40;62.80
30708;BME280;17458;48.958;8.284;2023-02-11T03:42:09;102421.53;;;3.63;62.13
30708;BME280;17458;48.958;8.284;2023-02-11T03:45:00;102431.94;;;3.86;61.81
30708;BME280;17458;48.958;8.284;2023-02-11T03:47:50;102433.56;;;3.77;61.98
30708;BME280;17458;48.958;8.284;2023-02-11T03:50:37;102421.38;;;3.62;62.15
30708;BME280;17458;48.958;8.284;2023-02-11T03:53:22;102436.09;;;3.52;62.60
30708;BME280;17458;48.958;8.284;2023-02-11T03:56:09;102442.09;;;3.67;62.14
30708;BME280;17458;48.958;8.284;2023-02-11T03:58:54;102444.31;;;3.40;63.30
30708;BME280;17458;48.958;8.284;2023-02-11T04:01:38;102434.56;;;3.86;61.94
30708;BME280;17458;48.958;8.284;2023-02-11T04:04:22;102424.75;;;3.76;62.45
30708;BME280;17458;48.958;8.284;2023-02-11T04:07:06;102437.53;;;3.42;63.57
30708;BME280;17458;48.958;8.284;2023-02-11T04:09:50;102428.03;;;3.82;62.42
30708;BME280;17458;48.958;8.284;2023-02-11T04:12:34;102438.53;;;3.67;62.63
30708;BME280;17458;48.958;8.284;2023-02-11T04:15:19;102436.66;;;3.81;62.48
30708;BME280;17458;48.958;8.284;2023-02-11T04:18:03;102434.31;;;3.76;62.29
30708;BME280;17458;48.958;8.284;2023-02-11T04:20:48;102422.13;;;3.61;63.19
30708;BME280;17458;48.958;8.284;2023-02-11T04:23:32;102411.44;;;3.43;63.65
30708;BME280;17458;48.958;8.284;2023-02-11T04:26:16;102421.38;;;3.62;63.37
30708;BME280;17458;48.958;8.284;2023-02-11T04:29:00;102419.78;;;3.79;62.78
30708;BME280;17458;48.958;8.284;2023-02-11T04:31:44;102426.84;;;3.87;62.41
30708;BME280;17458;48.958;8.284;2023-02-11T04:34:29;102428.13;;;3.91;62.43
30708;BME280;17458;48.958;8.284;2023-02-11T04:37:13;102421.09;;;4.07;61.90
30708;BME280;17458;48.958;8.284;2023-02-11T04:39:57;102425.38;;;3.98;62.06
30708;BME280;17458;48.958;8.284;2023-02-11T04:42:41;102432.34;;;3.82;62.58
30708;BME280;17458;48.958;8.284;2023-02-11T04:45:25;102431.94;;;3.86;62.13
30708;BME280;17458;48.958;8.284;2023-02-11T04:48:09;102433.03;;;3.72;62.54
30708;BME280;17458;48.958;8.284;2023-02-11T04:50:53;102435.09;;;3.75;62.70
30708;BME280;17458;48.958;8.284;2023-02-11T04:53:37;102420.66;;;3.71;63.32
30708;BME280;17458;48.958;8.284;2023-02-11T04:56:21;102407.88;;;3.59;63.69
30708;BME280;17458;48.958;8.284;2023-02-11T04:59:06;102389.06;;;3.78;63.18
30708;BME280;17458;48.958;8.284;2023-02-11T05:01:50;102382.91;;;3.86;63.20
30708;BME280;17458;48.958;8.284;2023-02-11T05:04:34;102377.53;;;3.53;64.06
30708;BME280;17458;48.958;8.284;2023-02-11T05:07:18;102372.38;;;3.62;63.67
30708;BME280;17458;48.958;8.284;2023-02-11T05:10:02;102370.88;;;3.17;64.79
30708;BME280;17458;48.958;8.284;2023-02-11T05:12:47;102373.56;;;3.41;64.84
30708;BME280;17458;48.958;8.284;2023-02-11T05:15:31;102371.03;;;3.50;63.83
30708;BME280;17458;48.958;8.284;2023-02-11T05:18:15;102357.97;;;3.59;63.42
30708;BME280;17458;48.958;8.284;2023-02-11T05:21:05;102345.44;;;3.40;63.99
30708;BME280;17458;48.958;8.284;2023-02-11T05:23:49;102362.81;;;3.31;63.87
30708;BME280;17458;48.958;8.284;2023-02-11T05:26:33;102359.69;;;3.42;63.88
30708;BME280;17458;48.958;8.284;2023-02-11T05:29:17;102348.56;;;3.13;64.60
30708;BME280;17458;48.958;8.284;2023-02-11T05:32:01;102347.53;;;3.51;63.64
30708;BME280;17458;48.958;8.284;2023-02-11T05:34:45;102347.75;;;3.22;64.31
30708;BME280;17458;48.958;8.284;2023-02-11T05:37:29;102351.94;;;2.97;65.11
30708;BME280;17458;48.958;8.284;2023-02-11T05:40:13;102349.94;;;2.94;65.25
30708;BME280;17458;48.958;8.284;2023-02-11T05:42:58;102358.84;;;3.35;64.58
30708;BME280;17458;48.958;8.284;2023-02-11T05:45:42;102364.16;;;3.43;63.97
30708;BME280;17458;48.958;8.284;2023-02-11T05:48:25;102378.97;;;3.59;63.26
30708;BME280;17458;48.958;8.284;2023-02-11T05:51:10;102366.38;;;3.16;64.62
30708;BME280;17458;48.958;8.284;2023-02-11T05:53:53;102367.50;;;3.34;63.65
30708;BME280;17458;48.958;8.284;2023-02-11T05:56:38;102372.72;;;3.18;63.99
30708;BME280;17458;48.958;8.284;2023-02-11T05:59:21;102367.72;;;3.60;63.20
30708;BME280;17458;48.958;8.284;2023-02-11T06:02:06;102378.47;;;3.70;62.35
30708;BME280;17458;48.958;8.284;2023-02-11T06:04:50;102384.81;;;3.25;63.40
30708;BME280;17458;48.958;8.284;2023-02-11T06:07:34;102397.44;;;3.51;63.19
30708;BME280;17458;48.958;8.284;2023-02-11T06:10:18;102391.22;;;3.82;62.27
30708;BME280;17458;48.958;8.284;2023-02-11T06:13:02;102397.38;;;3.99;61.17
30708;BME280;17458;48.958;8.284;2023-02-11T06:15:57;102399.94;;;4.06;61.29
30708;BME280;17458;48.958;8.284;2023-02-11T06:18:42;102395.81;;;3.92;61.34
30708;BME280;17458;48.958;8.284;2023-02-11T06:21:26;102405.31;;;3.83;61.63
30708;BME280;17458;48.958;8.284;2023-02-11T06:24:10;102404.50;;;4.00;61.18
30708;BME280;17458;48.958;8.284;2023-02-11T06:26:54;102404.53;;;3.84;61.47
30708;BME280;17458;48.958;8.284;2023-02-11T06:29:38;102397.88;;;3.79;61.92
30708;BME280;17458;48.958;8.284;2023-02-11T06:32:22;102402.78;;;3.91;61.56
30708;BME280;17458;48.958;8.284;2023-02-11T06:35:06;102401.13;;;4.01;61.36
30708;BME280;17458;48.958;8.284;2023-02-11T06:37:51;102387.38;;;3.47;62.94
30708;BME280;17458;48.958;8.284;2023-02-11T06:40:36;102379.69;;;3.33;63.83
30708;BME280;17458;48.958;8.284;2023-02-11T06:43:20;102383.41;;;3.35;63.48
30708;BME280;17458;48.958;8.284;2023-02-11T06:46:04;102381.44;;;3.57;63.30
30708;BME280;17458;48.958;8.284;2023-02-11T06:48:49;102388.91;;;3.45;63.85
30708;BME280;17458;48.958;8.284;2023-02-11T06:51:33;102393.47;;;3.55;63.17
30708;BME280;17458;48.958;8.284;2023-02-11T06:54:17;102387.47;;;3.56;63.39
30708;BME280;17458;48.958;8.284;2023-02-11T06:57:01;102395.84;;;3.45;63.99
30708;BME280;17458;48.958;8.284;2023-02-11T06:59:45;102397.13;;;3.64;63.51
30708;BME280;17458;48.958;8.284;2023-02-11T07:02:29;102386.16;;;3.84;63.47
30708;BME280;17458;48.958;8.284;2023-02-11T07:05:13;102391.75;;;3.87;63.13
30708;BME280;17458;48.958;8.284;2023-02-11T07:07:57;102398.00;;;3.80;63.50
30708;BME280;17458;48.958;8.284;2023-02-11T07:10:41;102405.31;;;3.67;64.13
30708;BME280;17458;48.958;8.284;2023-02-11T07:13:25;102392.88;;;3.73;64.35
30708;BME280;17458;48.958;8.284;2023-02-11T07:16:12;102401.31;;;3.86;63.75
30708;BME280;17458;48.958;8.284;2023-02-11T07:18:57;102407.72;;;3.41;65.45
30708;BME280;17458;48.958;8.284;2023-02-11T07:21:40;102409.66;;;3.67;65.27
30708;BME280;17458;48.958;8.284;2023-02-11T07:24:24;102412.19;;;3.89;64.43
30708;BME280;17458;48.958;8.284;2023-02-11T07:27:08;102411.16;;;3.80;64.55
30708;BME280;17458;48.958;8.284;2023-02-11T07:29:53;102415.03;;;4.00;64.26
30708;BME280;17458;48.958;8.284;2023-02-11T07:32:37;102436.00;;;3.91;64.54
30708;BME280;17458;48.958;8.284;2023-02-11T07:35:21;102443.00;;;4.15;64.22
30708;BME280;17458;48.958;8.284;2023-02-11T07:38:05;102442.63;;;4.27;63.23
30708;BME280;17458;48.958;8.284;2023-02-11T07:40:49;102449.59;;;4.11;63.57
30708;BME280;17458;48.958;8.284;2023-02-11T07:43:33;102445.97;;;4.18;63.98
30708;BME280;17458;48.958;8.284;2023-02-11T07:46:21;102454.50;;;4.24;63.48
30708;BME280;17458;48.958;8.284;2023-02-11T07:49:05;102450.28;;;4.17;64.44
30708;BME280;17458;48.958;8.284;2023-02-11T07:51:49;102440.25;;;4.22;64.16
30708;BME280;17458;48.958;8.284;2023-02-11T07:54:34;102443.53;;;4.52;63.54
30708;BME280;17458;48.958;8.284;2023-02-11T07:57:22;102454.63;;;4.41;63.14
30708;BME280;17458;48.958;8.284;2023-02-11T08:00:10;102447.06;;;4.20;63.96
30708;BME280;17458;48.958;8.284;2023-02-11T08:02:57;102440.38;;;3.99;65.02
30708;BME280;17458;48.958;8.284;2023-02-11T08:05:42;102435.88;;;4.14;64.90
30708;BME280;17458;48.958;8.284;2023-02-11T08:08:26;102430.28;;;3.95;65.26
30708;BME280;17458;48.958;8.284;2023-02-11T08:11:19;102431.75;;;3.84;65.26
30708;BME280;17458;48.958;8.284;2023-02-11T08:14:16;102424.34;;;4.05;65.32
30708;BME280;17458;48.958;8.284;2023-02-11T08:17:00;102420.25;;;3.91;65.22
30708;BME280;17458;48.958;8.284;2023-02-11T08:19:45;102410.66;;;3.91;65.93
30708;BME280;17458;48.958;8.284;2023-02-11T08:22:33;102417.78;;;4.17;65.06
30708;BME280;17458;48.958;8.284;2023-02-11T08:25:17;102414.19;;;4.32;64.21
30708;BME280;17458;48.958;8.284;2023-02-11T08:28:02;102402.13;;;3.94;64.70
30708;BME280;17458;48.958;8.284;2023-02-11T08:30:46;102398.72;;;4.11;64.16
30708;BME280;17458;48.958;8.284;2023-02-11T08:33:31;102402.41;;;4.28;64.31
30708;BME280;17458;48.958;8.284;2023-02-11T08:36:20;102404.84;;;4.27;64.16
30708;BME280;17458;48.958;8.284;2023-02-11T08:39:08;102406.22;;;3.99;64.92
30708;BME280;17458;48.958;8.284;2023-02-11T08:41:54;102406.34;;;4.16;64.65
30708;BME280;17458;48.958;8.284;2023-02-11T08:44:39;102410.28;;;4.28;64.22
30708;BME280;17458;48.958;8.284;2023-02-11T08:47:23;102416.59;;;4.46;64.35
30708;BME280;17458;48.958;8.284;2023-02-11T08:50:08;102419.84;;;4.52;63.20
30708;BME280;17458;48.958;8.284;2023-02-11T08:52:52;102422.69;;;4.30;63.41
30708;BME280;17458;48.958;8.284;2023-02-11T08:55:37;102423.41;;;4.53;63.13
30708;BME280;17458;48.958;8.284;2023-02-11T08:58:21;102414.56;;;4.44;63.09
30708;BME280;17458;48.958;8.284;2023-02-11T09:01:14;102414.72;;;5.20;61.11
30708;BME280;17458;48.958;8.284;2023-02-11T09:03:59;102415.50;;;5.19;61.34
30708;BME280;17458;48.958;8.284;2023-02-11T09:06:44;102411.31;;;5.21;61.44
30708;BME280;17458;48.958;8.284;2023-02-11T09:09:28;102406.28;;;5.57;61.93
30708;BME280;17458;48.958;8.284;2023-02-11T09:12:12;102399.31;;;5.57;59.87
30708;BME280;17458;48.958;8.284;2023-02-11T09:14:56;102394.50;;;5.70;58.88
30708;BME280;17458;48.958;8.284;2023-02-11T09:17:40;102389.66;;;5.41;58.83
30708;BME280;17458;48.958;8.284;2023-02-11T09:20:24;102390.81;;;5.01;60.28
30708;BME280;17458;48.958;8.284;2023-02-11T09:23:09;102388.84;;;5.16;59.89
30708;BME280;17458;48.958;8.284;2023-02-11T09:25:53;102392.31;;;5.41;58.68
30708;BME280;17458;48.958;8.284;2023-02-11T09:28:37;102400.53;;;5.52;58.88
30708;BME280;17458;48.958;8.284;2023-02-11T09:31:24;102404.59;;;5.83;57.39
30708;BME280;17458;48.958;8.284;2023-02-11T09:34:09;102401.47;;;6.22;56.80
30708;BME280;17458;48.958;8.284;2023-02-11T09:36:54;102402.91;;;6.01;56.49
30708;BME280;17458;48.958;8.284;2023-02-11T09:39:38;102397.63;;;5.75;57.04
30708;BME280;17458;48.958;8.284;2023-02-11T09:42:48;102389.84;;;6.11;57.04
30708;BME280;17458;48.958;8.284;2023-02-11T09:45:34;102399.25;;;6.52;55.96
30708;BME280;17458;48.958;8.284;2023-02-11T09:48:20;102385.25;;;6.98;54.74
30708;BME280;17458;48.958;8.284;2023-02-11T09:51:05;102403.53;;;7.32;54.38
30708;BME280;17458;48.958;8.284;2023-02-11T09:54:01;102408.31;;;7.36;54.11
30708;BME280;17458;48.958;8.284;2023-02-11T09:56:46;102410.66;;;7.98;52.56
30708;BME280;17458;48.958;8.284;2023-02-11T09:59:30;102416.06;;;8.18;52.01
30708;BME280;17458;48.958;8.284;2023-02-11T10:02:31;102412.50;;;8.37;50.93
30708;BME280;17458;48.958;8.284;2023-02-11T10:08:19;102427.47;;;8.65;50.42
30708;BME280;17458;48.958;8.284;2023-02-11T10:11:11;102432.16;;;8.49;50.05
30708;BME280;17458;48.958;8.284;2023-02-11T10:20:31;102425.53;;;7.69;51.67
30708;BME280;17458;48.958;8.284;2023-02-11T10:23:22;102414.53;;;7.83;52.33
30708;BME280;17458;48.958;8.284;2023-02-11T10:26:14;102417.44;;;7.67;52.10
30708;BME280;17458;48.958;8.284;2023-02-11T10:29:27;102411.94;;;7.93;51.63
30708;BME280;17458;48.958;8.284;2023-02-11T10:35:15;102411.47;;;7.97;52.07
30708;BME280;17458;48.958;8.284;2023-02-11T10:38:01;102405.50;;;8.37;51.61
30708;BME280;17458;48.958;8.284;2023-02-11T10:40:46;102404.28;;;8.63;51.46
30708;BME280;17458;48.958;8.284;2023-02-11T10:43:31;102405.63;;;8.39;51.74
30708;BME280;17458;48.958;8.284;2023-02-11T10:46:21;102406.94;;;7.96;52.44
30708;BME280;17458;48.958;8.284;2023-02-11T10:49:05;102396.41;;;8.25;51.91
30708;BME280;17458;48.958;8.284;2023-02-11T10:51:50;102392.09;;;8.65;51.68
30708;BME280;17458;48.958;8.284;2023-02-11T10:57:49;102386.19;;;8.01;52.46
30708;BME280;17458;48.958;8.284;2023-02-11T11:00:37;102374.22;;;8.62;51.62
30708;BME280;17458;48.958;8.284;2023-02-11T11:03:25;102367.53;;;8.47;51.63
30708;BME280;17458;48.958;8.284;2023-02-11T11:06:11;102362.81;;;8.63;51.44
30708;BME280;17458;48.958;8.284;2023-02-11T11:08:55;102353.66;;;8.49;51.19
30708;BME280;17458;48.958;8.284;2023-02-11T11:11:50;102344.94;;;8.71;51.15
30708;BME280;17458;48.958;8.284;2023-02-11T11:14:36;102356.28;;;8.49;51.45
30708;BME280;17458;48.958;8.284;2023-02-11T11:17:20;102362.84;;;8.73;50.94
30708;BME280;17458;48.958;8.284;2023-02-11T11:20:27;102371.84;;;8.75;51.00
30708;BME280;17458;48.958;8.284;2023-02-11T11:23:20;102364.06;;;8.77;51.31
30708;BME280;17458;48.958;8.284;2023-02-11T11:26:09;102370.06;;;8.95;50.56
30708;BME280;17458;48.958;8.284;2023-02-11T11:28:58;102358.69;;;9.67;49.84
30708;BME280;17458;48.958;8.284;2023-02-11T11:34:48;102361.22;;;10.17;48.94
30708;BME280;17458;48.958;8.284;2023-02-11T11:37:37;102366.50;;;10.59;47.91
30708;BME280;17458;48.958;8.284;2023-02-11T11:40:27;102354.28;;;9.77;49.40
30708;BME280;17458;48.958;8.284;2023-02-11T11:45:58;102364.34;;;9.91;49.95
30708;BME280;17458;48.958;8.284;2023-02-11T11:48:45;102358.50;;;9.95;49.12
30708;BME280;17458;48.958;8.284;2023-02-11T11:51:33;102348.31;;;9.80;49.73
30708;BME280;17458;48.958;8.284;2023-02-11T11:54:18;102357.47;;;9.43;50.52
30708;BME280;17458;48.958;8.284;2023-02-11T11:57:13;102352.34;;;10.07;49.65
30708;BME280;17458;48.958;8.284;2023-02-11T11:59:59;102358.47;;;10.06;49.46
30708;BME280;17458;48.958;8.284;2023-02-11T12:27:10;102329.84;;;10.99;48.63
30708;BME280;17458;48.958;8.284;2023-02-11T12:33:18;102333.44;;;11.33;47.74
30708;BME280;17458;48.958;8.284;2023-02-11T12:42:31;102325.59;;;12.03;47.58
30708;BME280;17458;48.958;8.284;2023-02-11T12:46:07;102322.75;;;11.66;48.20
30708;BME280;17458;48.958;8.284;2023-02-11T12:52:24;102325.19;;;11.75;47.66
30708;BME280;17458;48.958;8.284;2023-02-11T12:55:16;102319.31;;;11.79;47.28
30708;BME280;17458;48.958;8.284;2023-02-11T12:58:02;102324.72;;;11.57;47.65
30708;BME280;17458;48.958;8.284;2023-02-11T13:00:51;102309.75;;;11.93;47.13
30708;BME280;17458;48.958;8.284;2023-02-11T13:03:43;102305.44;;;11.95;47.51
30708;BME280;17458;48.958;8.284;2023-02-11T13:06:35;102305.50;;;11.61;48.34
30708;BME280;17458;48.958;8.284;2023-02-11T13:09:26;102310.47;;;11.68;48.23
30708;BME280;17458;48.958;8.284;2023-02-11T13:12:14;102299.78;;;11.79;47.63
30708;BME280;17458;48.958;8.284;2023-02-11T13:15:17;102301.44;;;11.55;48.42
30708;BME280;17458;48.958;8.284;2023-02-11T13:18:04;102310.50;;;11.80;48.28
30708;BME280;17458;48.958;8.284;2023-02-11T13:21:15;102308.19;;;12.31;47.32
30708;BME280;17458;48.958;8.284;2023-02-11T13:24:18;102301.63;;;12.63;47.50
30708;BME280;17458;48.958;8.284;2023-02-11T13:27:09;102301.94;;;12.67;46.58
30708;BME280;17458;48.958;8.284;2023-02-11T13:33:49;102303.44;;;12.64;46.70
30708;BME280;17458;48.958;8.284;2023-02-11T13:39:17;102299.84;;;12.27;47.47
30708;BME280;17458;48.958;8.284;2023-02-11T13:42:02;102302.41;;;12.25;47.32
30708;BME280;17458;48.958;8.284;2023-02-11T13:44:46;102304.19;;;12.61;46.31
30708;BME280;17458;48.958;8.284;2023-02-11T13:47:32;102302.66;;;11.93;47.97
30708;BME280;17458;48.958;8.284;2023-02-11T13:50:22;102305.16;;;11.57;49.16
30708;BME280;17458;48.958;8.284;2023-02-11T13:53:06;102296.72;;;12.09;48.28
30708;BME280;17458;48.958;8.284;2023-02-11T13:56:04;102301.41;;;12.60;47.58
30708;BME280;17458;48.958;8.284;2023-02-11T13:58:50;102300.41;;;12.46;47.41
30708;BME280;17458;48.958;8.284;2023-02-11T14:05:18;102294.72;;;13.15;45.82
30708;BME280;17458;48.958;8.284;2023-02-11T14:08:22;102302.63;;;12.65;47.25
30708;BME280;17458;48.958;8.284;2023-02-11T14:19:51;102299.16;;;13.27;46.58
30708;BME280;17458;48.958;8.284;2023-02-11T14:22:43;102291.41;;;12.94;47.14
30708;BME280;17458;48.958;8.284;2023-02-11T14:25:30;102284.44;;;12.71;46.83
30708;BME280;17458;48.958;8.284;2023-02-11T14:28:22;102280.69;;;12.81;47.45
30708;BME280;17458;48.958;8.284;2023-02-11T14:31:14;102288.31;;;13.12;46.96
30708;BME280;17458;48.958;8.284;2023-02-11T14:34:29;102289.50;;;13.16;46.50
30708;BME280;17458;48.958;8.284;2023-02-11T14:37:30;102281.28;;;13.01;47.08
30708;BME280;17458;48.958;8.284;2023-02-11T14:40:31;102282.34;;;13.03;46.94
30708;BME280;17458;48.958;8.284;2023-02-11T14:43:23;102276.38;;;13.07;47.09
30708;BME280;17458;48.958;8.284;2023-02-11T14:46:09;102278.94;;;12.81;47.35
30708;BME280;17458;48.958;8.284;2023-02-11T14:48:56;102283.97;;;12.65;47.71
30708;BME280;17458;48.958;8.284;2023-02-11T14:51:41;102286.13;;;13.07;46.49
30708;BME280;17458;48.958;8.284;2023-02-11T14:54:26;102292.78;;;13.00;47.02
30708;BME280;17458;48.958;8.284;2023-02-11T14:57:19;102290.53;;;13.18;46.93
30708;BME280;17458;48.958;8.284;2023-02-11T15:00:14;102290.28;;;12.90;47.02
30708;BME280;17458;48.958;8.284;2023-02-11T15:02:59;102284.22;;;13.42;46.32
30708;BME280;17458;48.958;8.284;2023-02-11T15:05:43;102288.09;;;13.47;46.50
30708;BME280;17458;48.958;8.284;2023-02-11T15:08:28;102283.88;;;13.38;46.53
30708;BME280;17458;48.958;8.284;2023-02-11T15:11:17;102293.81;;;13.27;46.52
30708;BME280;17458;48.958;8.284;2023-02-11T15:14:09;102299.53;;;13.45;46.21
30708;BME280;17458;48.958;8.284;2023-02-11T15:16:59;102296.44;;;12.77;47.35
30708;BME280;17458;48.958;8.284;2023-02-11T15:19:46;102299.22;;;12.91;46.83
30708;BME280;17458;48.958;8.284;2023-02-11T15:22:33;102297.31;;;12.65;46.86
30708;BME280;17458;48.958;8.284;2023-02-11T15:25:19;102298.75;;;12.85;47.05
30708;BME280;17458;48.958;8.284;2023-02-11T15:28:18;102305.25;;;12.88;46.95
30708;BME280;17458;48.958;8.284;2023-02-11T15:31:15;102304.97;;;12.72;47.17
30708;BME280;17458;48.958;8.284;2023-02-11T15:34:06;102314.13;;;12.64;47.70
30708;BME280;17458;48.958;8.284;2023-02-11T15:36:51;102307.13;;;12.41;47.98
30708;BME280;17458;48.958;8.284;2023-02-11T15:39:40;102308.47;;;12.59;47.93
30708;BME280;17458;48.958;8.284;2023-02-11T15:42:27;102310.13;;;12.46;48.32
30708;BME280;17458;48.958;8.284;2023-02-11T15:48:10;102312.50;;;12.66;47.83
30708;BME280;17458;48.958;8.284;2023-02-11T15:50:58;102305.34;;;12.53;48.40
30708;BME280;17458;48.958;8.284;2023-02-11T15:53:48;102315.00;;;12.39;48.21
30708;BME280;17458;48.958;8.284;2023-02-11T15:56:39;102322.75;;;12.48;48.13
30708;BME280;17458;48.958;8.284;2023-02-11T15:59:32;102319.16;;;12.48;48.26
30708;BME280;17458;48.958;8.284;2023-02-11T16:02:31;102315.78;;;12.50;48.27
30708;BME280;17458;48.958;8.284;2023-02-11T16:08:27;102322.03;;;12.51;48.12
30708;BME280;17458;48.958;8.284;2023-02-11T16:14:33;102327.75;;;12.43;47.95
30708;BME280;17458;48.958;8.284;2023-02-11T16:20:18;102334.94;;;12.33;48.17
30708;BME280;17458;48.958;8.284;2023-02-11T16:23:03;102343.53;;;12.29;48.13
30708;BME280;17458;48.958;8.284;2023-02-11T16:25:52;102346.03;;;12.39;48.16
30708;BME280;17458;48.958;8.284;2023-02-11T16:28:41;102337.00;;;12.37;48.21
30708;BME280;17458;48.958;8.284;2023-02-11T16:31:34;102338.25;;;12.54;48.35
30708;BME280;17458;48.958;8.284;2023-02-11T16:34:21;102340.13;;;12.43;48.56
30708;BME280;17458;48.958;8.284;2023-02-11T16:37:11;102349.06;;;12.43;48.37